Time,TemperatureF,DewpointF,PressureIn,WindDirection,WindDirectionDegrees,WindSpeedMPH,WindSpeedGustMPH,Humidity,HourlyPrecipIn,Conditions,Clouds,dailyrainin,SoftwareType,DateUTC
2013-06-10 00:02:00,74.0,16.0,29.66,NNE,23,0.0,2.0,11,0.00,,,0.00,,2013-06-10 07:02:00,
2013-06-10 00:22:00,74.0,16.0,29.66,NNE,23,1.0,2.0,11,0.00,,,0.00,,2013-06-10 07:22:00,
2013-06-10 00:32:00,74.0,16.0,29.66,NE,45,2.0,3.0,11,0.00,,,0.00,,2013-06-10 07:32:00,
2013-06-10 00:42:00,74.0,16.0,29.66,NE,45,2.0,3.0,11,0.00,,,0.00,,2013-06-10 07:42:00,
2013-06-10 00:52:00,73.0,15.0,29.66,East,90,2.0,3.0,11,0.00,,,0.00,,2013-06-10 07:52:00,
2013-06-10 01:01:00,73.0,15.0,29.66,ENE,68,1.0,2.0,11,0.00,,,0.00,,2013-06-10 08:01:00,
2013-06-10 01:21:00,72.0,15.0,29.66,NE,45,2.0,3.0,11,0.00,,,0.00,,2013-06-10 08:21:00,
2013-06-10 01:42:00,72.0,15.0,29.66,NNW,338,2.0,2.0,11,0.00,,,0.00,,2013-06-10 08:42:00,
2013-06-10 01:52:00,71.0,16.0,29.66,ENE,68,1.0,2.0,12,0.00,,,0.00,,2013-06-10 08:52:00,
2013-06-10 02:01:00,71.0,16.0,29.66,NNE,23,2.0,2.0,12,0.00,,,0.00,,2013-06-10 09:01:00,
2013-06-10 02:22:00,71.0,16.0,29.66,North,0,2.0,2.0,12,0.00,,,0.00,,2013-06-10 09:22:00,
2013-06-10 02:32:00,70.0,15.0,29.66,North,0,1.0,3.0,12,0.00,,,0.00,,2013-06-10 09:32:00,
2013-06-10 02:42:00,70.0,15.0,29.66,North,0,1.0,3.0,12,0.00,,,0.00,,2013-06-10 09:42:00,
2013-06-10 02:53:00,70.0,15.0,29.66,ESE,113,1.0,2.0,12,0.00,,,0.00,,2013-06-10 09:53:00,
2013-06-10 03:02:00,70.0,15.0,29.66,NE,45,0.0,0.0,12,0.00,,,0.00,,2013-06-10 10:02:00,
2013-06-10 03:22:00,69.0,14.0,29.66,ENE,68,0.0,2.0,12,0.00,,,0.00,,2013-06-10 10:22:00,
2013-06-10 03:33:00,69.0,14.0,29.66,North,0,2.0,3.0,12,0.00,,,0.00,,2013-06-10 10:33:00,
2013-06-10 03:42:00,69.0,14.0,29.66,North,0,2.0,3.0,12,0.00,,,0.00,,2013-06-10 10:42:00,
2013-06-10 03:52:00,69.0,14.0,29.66,North,0,2.0,2.0,12,0.00,,,0.00,,2013-06-10 10:52:00,
2013-06-10 04:02:00,69.0,14.0,29.66,NE,45,1.0,1.0,12,0.00,,,0.00,,2013-06-10 11:02:00,
2013-06-10 04:22:00,68.0,14.0,29.66,NNE,23,1.0,4.0,12,0.00,,,0.00,,2013-06-10 11:22:00,
2013-06-10 04:31:00,68.0,14.0,29.66,NE,45,2.0,3.0,12,0.00,,,0.00,,2013-06-10 11:31:00,
2013-06-10 04:42:00,68.0,14.0,29.66,NE,45,2.0,3.0,12,0.00,,,0.00,,2013-06-10 11:42:00,
2013-06-10 04:52:00,68.0,14.0,29.66,NNE,23,1.0,3.0,12,0.00,,,0.00,,2013-06-10 11:52:00,
2013-06-10 05:02:00,67.0,13.0,29.66,NNE,23,1.0,3.0,12,0.00,,,0.00,,2013-06-10 12:02:00,
2013-06-10 05:22:00,67.0,13.0,29.66,NNE,23,1.0,3.0,12,0.00,,,0.00,,2013-06-10 12:22:00,
2013-06-10 05:32:00,67.0,13.0,29.66,NNE,23,0.0,2.0,12,0.00,,,0.00,,2013-06-10 12:32:00,
2013-06-10 05:42:00,67.0,13.0,29.66,NNE,23,0.0,2.0,12,0.00,,,0.00,,2013-06-10 12:42:00,
2013-06-10 05:52:00,67.0,13.0,29.66,NNE,23,2.0,3.0,12,0.00,,,0.00,,2013-06-10 12:52:00,
2013-06-10 06:02:00,67.0,13.0,29.66,East,90,0.0,2.0,12,0.00,,,0.00,,2013-06-10 13:02:00,
2013-06-10 06:22:00,67.0,13.0,29.69,NNE,23,0.0,2.0,12,0.00,,,0.00,,2013-06-10 13:22:00,
2013-06-10 06:32:00,67.0,13.0,29.69,ENE,68,1.0,2.0,12,0.00,,,0.00,,2013-06-10 13:32:00,
2013-06-10 06:42:00,67.0,13.0,29.69,ENE,68,1.0,2.0,12,0.00,,,0.00,,2013-06-10 13:42:00,
2013-06-10 06:52:00,67.0,13.0,29.66,ENE,68,2.0,2.0,12,0.00,,,0.00,,2013-06-10 13:52:00,
2013-06-10 07:02:00,68.0,14.0,29.69,ESE,113,2.0,3.0,12,0.00,,,0.00,,2013-06-10 14:02:00,
2013-06-10 07:11:00,69.0,14.0,29.69,East,90,3.0,3.0,12,0.00,,,0.00,,2013-06-10 14:11:00,
2013-06-10 07:22:00,69.0,14.0,29.69,East,90,3.0,3.0,12,0.00,,,0.00,,2013-06-10 14:22:00,
2013-06-10 07:32:00,71.0,16.0,29.69,SSE,158,2.0,3.0,12,0.00,,,0.00,,2013-06-10 14:32:00,
2013-06-10 07:42:00,71.0,16.0,29.69,SSE,158,2.0,3.0,12,0.00,,,0.00,,2013-06-10 14:42:00,
2013-06-10 07:52:00,74.0,16.0,29.73,ESE,113,3.0,4.0,11,0.00,,,0.00,,2013-06-10 14:52:00,
2013-06-10 08:22:00,81.0,24.0,29.73,East,90,2.0,3.0,12,0.00,,,0.00,,2013-06-10 15:22:00,
2013-06-10 08:32:00,84.0,24.0,29.73,SE,135,2.0,3.0,11,0.00,,,0.00,,2013-06-10 15:32:00,
2013-06-10 08:43:00,87.0,26.0,29.76,SSE,158,3.0,6.0,11,0.00,,,0.00,,2013-06-10 15:43:00,
2013-06-10 08:53:00,87.0,26.0,29.76,SSE,158,3.0,6.0,11,0.00,,,0.00,,2013-06-10 15:53:00,
2013-06-10 09:02:00,89.0,25.0,29.73,SSE,158,4.0,5.0,10,0.00,,,0.00,,2013-06-10 16:02:00,
2013-06-10 09:12:00,89.0,25.0,29.73,SSE,158,4.0,5.0,10,0.00,,,0.00,,2013-06-10 16:12:00,
2013-06-10 09:22:00,91.0,24.0,29.73,SSW,203,6.0,8.0,9,0.00,,,0.00,,2013-06-10 16:22:00,
2013-06-10 09:33:00,92.0,25.0,29.73,South,180,4.0,5.0,9,0.00,,,0.00,,2013-06-10 16:33:00,
2013-06-10 09:42:00,95.0,27.0,29.73,NE,45,5.0,5.0,9,0.00,,,0.00,,2013-06-10 16:42:00,
2013-06-10 09:52:00,95.0,27.0,29.73,NE,45,5.0,5.0,9,0.00,,,0.00,,2013-06-10 16:52:00,
2013-06-10 10:02:00,96.0,28.0,29.73,South,180,6.0,8.0,9,0.00,,,0.00,,2013-06-10 17:02:00,
2013-06-10 10:14:00,97.0,26.0,29.73,SE,135,7.0,7.0,8,0.00,,,0.00,,2013-06-10 17:14:00,
2013-06-10 10:26:00,97.0,26.0,29.73,SE,135,7.0,7.0,8,0.00,,,0.00,,2013-06-10 17:26:00,
2013-06-10 10:38:00,99.0,27.0,29.73,SE,135,6.0,9.0,8,0.00,,,0.00,,2013-06-10 17:38:00,
2013-06-10 10:48:00,99.0,27.0,29.69,ESE,113,10.0,10.0,8,0.00,,,0.00,,2013-06-10 17:48:00,
2013-06-10 10:58:00,99.0,27.0,29.69,ESE,113,10.0,10.0,8,0.00,,,0.00,,2013-06-10 17:58:00,
2013-06-10 11:06:00,100.0,28.0,29.69,ESE,113,10.0,10.0,8,0.00,,,0.00,,2013-06-10 18:06:00,
2013-06-10 11:24:00,100.0,28.0,29.66,SSW,203,9.0,13.0,8,0.00,,,0.00,,2013-06-10 18:24:00,
2013-06-10 11:34:00,100.0,28.0,29.66,SSW,203,10.0,16.0,8,0.00,,,0.00,,2013-06-10 18:34:00,
2013-06-10 11:47:00,100.0,28.0,29.66,SSW,203,10.0,16.0,8,0.00,,,0.00,,2013-06-10 18:47:00,
2013-06-10 11:55:00,100.0,28.0,29.66,SSE,158,9.0,9.0,8,0.00,,,0.00,,2013-06-10 18:55:00,
2013-06-10 12:02:00,100.0,28.0,29.66,South,180,2.0,3.0,8,0.00,,,0.00,,2013-06-10 19:02:00,
2013-06-10 12:12:00,100.0,28.0,29.66,South,180,2.0,3.0,8,0.00,,,0.00,,2013-06-10 19:12:00,
2013-06-10 12:22:00,101.0,26.0,29.66,SSW,203,9.0,9.0,7,0.00,,,0.00,,2013-06-10 19:22:00,
2013-06-10 12:32:00,101.0,26.0,29.66,South,180,12.0,20.0,7,0.00,,,0.00,,2013-06-10 19:32:00,
2013-06-10 12:42:00,100.0,25.0,29.62,South,180,8.0,15.0,7,0.00,,,0.00,,2013-06-10 19:42:00,
2013-06-10 12:53:00,100.0,25.0,29.62,South,180,8.0,15.0,7,0.00,,,0.00,,2013-06-10 19:53:00,
2013-06-10 13:02:00,101.0,26.0,29.66,SSW,203,9.0,15.0,7,0.00,,,0.00,,2013-06-10 20:02:00,
2013-06-10 13:11:00,101.0,26.0,29.66,SSW,203,9.0,15.0,7,0.00,,,0.00,,2013-06-10 20:11:00,
2013-06-10 13:22:00,100.0,25.0,29.66,SSE,158,7.0,14.0,7,0.00,,,0.00,,2013-06-10 20:22:00,
2013-06-10 13:32:00,101.0,26.0,29.66,SSW,203,8.0,13.0,7,0.00,,,0.00,,2013-06-10 20:32:00,
2013-06-10 13:42:00,101.0,26.0,29.66,SSW,203,8.0,13.0,7,0.00,,,0.00,,2013-06-10 20:42:00,
2013-06-10 13:52:00,101.0,26.0,29.66,SSE,158,11.0,15.0,7,0.00,,,0.00,,2013-06-10 20:52:00,
2013-06-10 14:02:00,100.0,25.0,29.62,SW,225,9.0,13.0,7,0.00,,,0.00,,2013-06-10 21:02:00,
2013-06-10 14:12:00,100.0,25.0,29.62,SW,225,9.0,13.0,7,0.00,,,0.00,,2013-06-10 21:12:00,
2013-06-10 14:22:00,100.0,28.0,29.62,SSW,203,11.0,19.0,8,0.00,,,0.00,,2013-06-10 21:22:00,
2013-06-10 14:33:00,100.0,28.0,29.62,SSE,158,10.0,17.0,8,0.00,,,0.00,,2013-06-10 21:33:00,
2013-06-10 14:42:00,100.0,28.0,29.62,SSE,158,10.0,17.0,8,0.00,,,0.00,,2013-06-10 21:42:00,
2013-06-10 14:53:00,100.0,28.0,29.62,South,180,14.0,17.0,8,0.00,,,0.00,,2013-06-10 21:53:00,
2013-06-10 15:02:00,100.0,28.0,29.62,South,180,10.0,12.0,8,0.00,,,0.00,,2013-06-10 22:02:00,
2013-06-10 15:12:00,100.0,28.0,29.62,South,180,10.0,12.0,8,0.00,,,0.00,,2013-06-10 22:12:00,
2013-06-10 15:22:00,100.0,28.0,29.62,SSW,203,11.0,14.0,8,0.00,,,0.00,,2013-06-10 22:22:00,
2013-06-10 15:33:00,99.0,27.0,29.59,South,180,8.0,14.0,8,0.00,,,0.00,,2013-06-10 22:33:00,
2013-06-10 15:42:00,99.0,27.0,29.59,SSW,203,10.0,13.0,8,0.00,,,0.00,,2013-06-10 22:42:00,
2013-06-10 15:52:00,99.0,27.0,29.59,SSW,203,10.0,13.0,8,0.00,,,0.00,,2013-06-10 22:52:00,
2013-06-10 16:02:00,98.0,27.0,29.56,SSW,203,16.0,19.0,8,0.00,,,0.00,,2013-06-10 23:02:00,
2013-06-10 16:11:00,97.0,26.0,29.59,SSW,203,11.0,20.0,8,0.00,,,0.00,,2013-06-10 23:11:00,
2013-06-10 16:22:00,97.0,26.0,29.59,SSW,203,11.0,20.0,8,0.00,,,0.00,,2013-06-10 23:22:00,
2013-06-10 16:32:00,97.0,26.0,29.59,WSW,248,6.0,19.0,8,0.00,,,0.00,,2013-06-10 23:32:00,
2013-06-10 16:42:00,97.0,26.0,29.59,WSW,248,6.0,19.0,8,0.00,,,0.00,,2013-06-10 23:42:00,
2013-06-10 16:52:00,96.0,28.0,29.59,SW,225,10.0,13.0,9,0.00,,,0.00,,2013-06-10 23:52:00,
2013-06-10 17:01:00,96.0,28.0,29.59,SSW,203,9.0,17.0,9,0.00,,,0.00,,2013-06-11 00:01:00,
2013-06-10 17:11:00,95.0,27.0,29.59,South,180,11.0,19.0,9,0.00,,,0.00,,2013-06-11 00:11:00,
2013-06-10 17:22:00,95.0,27.0,29.59,South,180,11.0,19.0,9,0.00,,,0.00,,2013-06-11 00:22:00,
2013-06-10 17:32:00,94.0,27.0,29.59,SSE,158,10.0,11.0,9,0.00,,,0.00,,2013-06-11 00:32:00,
2013-06-10 17:42:00,93.0,26.0,29.59,SSW,203,7.0,13.0,9,0.00,,,0.00,,2013-06-11 00:42:00,
2013-06-10 17:52:00,93.0,26.0,29.59,SSW,203,7.0,13.0,9,0.00,,,0.00,,2013-06-11 00:52:00,
2013-06-10 18:02:00,92.0,25.0,29.59,South,180,8.0,13.0,9,0.00,,,0.00,,2013-06-11 01:02:00,
2013-06-10 18:11:00,92.0,25.0,29.59,SSW,203,9.0,14.0,9,0.00,,,0.00,,2013-06-11 01:11:00,
2013-06-10 18:22:00,92.0,25.0,29.59,SSW,203,9.0,14.0,9,0.00,,,0.00,,2013-06-11 01:22:00,
2013-06-10 18:31:00,91.0,27.0,29.59,SSW,203,11.0,20.0,10,0.00,,,0.00,,2013-06-11 01:31:00,
2013-06-10 18:42:00,90.0,26.0,29.59,SSE,158,11.0,18.0,10,0.00,,,0.00,,2013-06-11 01:42:00,
2013-06-10 18:52:00,90.0,26.0,29.59,SSE,158,11.0,18.0,10,0.00,,,0.00,,2013-06-11 01:52:00,
2013-06-10 19:01:00,89.0,25.0,29.59,SSW,203,9.0,9.0,10,0.00,,,0.00,,2013-06-11 02:01:00,
2013-06-10 19:11:00,89.0,25.0,29.59,SSE,158,10.0,13.0,10,0.00,,,0.00,,2013-06-11 02:11:00,
2013-06-10 19:21:00,89.0,25.0,29.59,SSE,158,10.0,13.0,10,0.00,,,0.00,,2013-06-11 02:21:00,
2013-06-10 19:31:00,88.0,27.0,29.59,SSE,158,10.0,13.0,11,0.00,,,0.00,,2013-06-11 02:31:00,
2013-06-10 19:42:00,87.0,26.0,29.59,South,180,9.0,11.0,11,0.00,,,0.00,,2013-06-11 02:42:00,
2013-06-10 19:52:00,87.0,26.0,29.59,South,180,9.0,11.0,11,0.00,,,0.00,,2013-06-11 02:52:00,
2013-06-10 20:01:00,86.0,25.0,29.59,SW,225,9.0,16.0,11,0.00,,,0.00,,2013-06-11 03:01:00,
2013-06-10 20:12:00,85.0,25.0,29.59,SW,225,4.0,8.0,11,0.00,,,0.00,,2013-06-11 03:12:00,
2013-06-10 20:22:00,85.0,25.0,29.59,SW,225,4.0,8.0,11,0.00,,,0.00,,2013-06-11 03:22:00,
2013-06-10 20:32:00,84.0,24.0,29.62,SW,225,6.0,6.0,11,0.00,,,0.00,,2013-06-11 03:32:00,
2013-06-10 20:42:00,83.0,23.0,29.62,SW,225,7.0,8.0,11,0.00,,,0.00,,2013-06-11 03:42:00,
2013-06-10 20:53:00,83.0,23.0,29.62,SW,225,7.0,8.0,11,0.00,,,0.00,,2013-06-11 03:53:00,
2013-06-10 21:02:00,83.0,23.0,29.62,South,180,4.0,9.0,11,0.00,,,0.00,,2013-06-11 04:02:00,
2013-06-10 21:12:00,83.0,23.0,29.62,South,180,4.0,9.0,11,0.00,,,0.00,,2013-06-11 04:12:00,
2013-06-10 21:22:00,82.0,22.0,29.62,WSW,248,5.0,8.0,11,0.00,,,0.00,,2013-06-11 04:22:00,
2013-06-10 21:33:00,82.0,24.0,29.66,WSW,248,7.0,7.0,12,0.00,,,0.00,,2013-06-11 04:33:00,
2013-06-10 21:42:00,82.0,24.0,29.66,WSW,248,7.0,7.0,12,0.00,,,0.00,,2013-06-11 04:42:00,
2013-06-10 21:52:00,81.0,24.0,29.66,SW,225,4.0,6.0,12,0.00,,,0.00,,2013-06-11 04:52:00,
2013-06-10 22:02:00,81.0,24.0,29.69,SSW,203,4.0,7.0,12,0.00,,,0.00,,2013-06-11 05:02:00,
2013-06-10 22:11:00,81.0,24.0,29.69,SSW,203,4.0,7.0,12,0.00,,,0.00,,2013-06-11 05:11:00,
2013-06-10 22:22:00,80.0,23.0,29.66,SSW,203,5.0,6.0,12,0.00,,,0.00,,2013-06-11 05:22:00,
2013-06-10 22:31:00,80.0,23.0,29.66,SSW,203,3.0,6.0,12,0.00,,,0.00,,2013-06-11 05:31:00,
2013-06-10 22:42:00,80.0,23.0,29.66,SSW,203,3.0,6.0,12,0.00,,,0.00,,2013-06-11 05:42:00,
2013-06-10 22:52:00,79.0,22.0,29.66,SW,225,4.0,8.0,12,0.00,,,0.00,,2013-06-11 05:52:00,
2013-06-10 23:02:00,79.0,22.0,29.66,SSW,203,4.0,6.0,12,0.00,,,0.00,,2013-06-11 06:02:00,
2013-06-10 23:12:00,79.0,22.0,29.66,SSW,203,4.0,6.0,12,0.00,,,0.00,,2013-06-11 06:12:00,
2013-06-10 23:22:00,78.0,23.0,29.66,SSW,203,4.0,6.0,13,0.00,,,0.00,,2013-06-11 06:22:00,
2013-06-10 23:32:00,78.0,17.0,29.66,WSW,248,4.0,4.0,10,0.00,,,0.00,,2013-06-11 06:32:00,
2013-06-10 23:42:00,77.0,16.0,29.62,SSW,203,4.0,4.0,10,0.00,,,0.00,,2013-06-11 06:42:00,
2013-06-10 23:52:00,77.0,16.0,29.62,SSW,203,4.0,4.0,10,0.00,,,0.00,,2013-06-11 06:52:00,